Time;durP1;ratioP1;P1;durP2;ratioP2;P2;SDS_P1;SDS_P2;PMS_P1;PMS_P2;Temp;Humidity;BMP_temperature;BMP_pressure;BME280_temperature;BME280_humidity;BME280_pressure;Samples;Min_cycle;Max_cycle;Signal;HPM_P1;HPM_P2
2022/06/21 00:02:25;;;;;;;;;;;;;;;30.43;21.20;100757.56;4426120;32;19997;-68
2022/06/21 00:04:50;;;;;;;;;;;;;;;30.73;20.95;100753.94;4427492;32;21152;-68
2022/06/21 00:07:20;;;;;;;;;;;;;;;30.49;21.30;100748.66;4426877;32;20020;-68
2022/06/21 00:09:45;;;;;;;;;;;;;;;30.30;21.68;100745.34;4426747;32;20009;-68
2022/06/21 00:12:12;;;;;;;;;;;;;;;29.91;21.97;100737.81;4416936;32;19971;-68
2022/06/21 00:14:39;;;;;;;;;;;;;;;29.89;22.00;100736.84;4416920;32;20379;-68
2022/06/21 00:17:04;;;;;;;;;;;;;;;29.87;21.98;100734.53;4415224;32;19993;-68
2022/06/21 00:19:30;;;;;;;;;;;;;;;29.81;22.07;100728.09;4414293;32;19976;-68
2022/06/21 00:21:56;;;;;;;;;;;;;;;29.78;22.11;100726.34;4417068;32;20215;-68
2022/06/21 00:24:22;;;;;;;;;;;;;;;29.65;22.22;100723.59;4416701;32;20036;-68
2022/06/21 00:26:47;;;;;;;;;;;;;;;29.45;22.54;100717.84;4417755;32;20009;-68
2022/06/21 00:29:13;;;;;;;;;;;;;;;29.47;22.52;100715.13;4415037;32;19981;-68
2022/06/21 00:31:41;;;;;;;;;;;;;;;29.57;22.52;100705.34;4415885;32;20346;-68
2022/06/21 00:34:14;;;;;;;;;;;;;;;29.57;22.41;100710.38;4416416;32;19954;-68
2022/06/21 00:36:39;;;;;;;;;;;;;;;29.56;22.44;100706.69;4407417;32;19973;-68
2022/06/21 00:39:07;;;;;;;;;;;;;;;29.61;22.51;100705.75;4415287;32;20964;-68
2022/06/21 00:44:12;;;;;;;;;;;;;;;29.84;22.55;100720.38;3948924;32;15724511;-69
2022/06/21 00:46:41;;;;;;;;;;;;;;;29.84;22.55;100720.38;4423142;32;19953;-69
2022/06/21 00:49:12;;;;;;;;;;;;;;;29.47;22.92;100718.03;4419354;32;20637;-69
2022/06/21 00:51:40;;;;;;;;;;;;;;;29.21;23.23;100709.56;4421704;32;20249;-68
2022/06/21 00:54:11;;;;;;;;;;;;;;;29.31;23.18;100716.38;4420440;32;20350;-68
2022/06/21 00:56:39;;;;;;;;;;;;;;;29.13;23.34;100705.84;4421173;32;20023;-68
2022/06/21 00:59:17;;;;;;;;;;;;;;;29.31;23.04;100710.59;4421304;32;19977;-68
2022/06/21 01:01:43;;;;;;;;;;;;;;;28.98;23.46;100712.28;4419698;32;20359;-68
2022/06/21 01:04:14;;;;;;;;;;;;;;;29.03;23.31;100705.56;4421750;32;20647;-68
2022/06/21 01:06:43;;;;;;;;;;;;;;;28.59;23.84;100710.41;4420714;32;21047;-67
2022/06/21 01:11:50;;;;;;;;;;;;;;;29.22;23.24;100709.00;3947811;32;15723172;-69
2022/06/21 01:14:17;;;;;;;;;;;;;;;28.64;23.97;100700.00;4424835;32;19992;-69
2022/06/21 01:16:43;;;;;;;;;;;;;;;28.76;23.90;100707.87;4423231;32;20952;-69
2022/06/21 01:19:14;;;;;;;;;;;;;;;28.40;24.32;100712.69;4421267;32;20674;-69
2022/06/21 01:21:44;;;;;;;;;;;;;;;28.45;24.28;100706.03;4423074;32;20397;-69
2022/06/21 01:24:16;;;;;;;;;;;;;;;28.48;24.31;100704.91;4423302;32;20360;-69
2022/06/21 01:29:18;;;;;;;;;;;;;;;28.99;24.02;100711.69;3946711;32;15726332;-67
2022/06/21 01:31:44;;;;;;;;;;;;;;;28.99;24.02;100711.69;4418463;32;20475;-67
2022/06/21 01:34:15;;;;;;;;;;;;;;;28.40;24.29;100706.91;4422649;32;20346;-68
2022/06/21 01:36:41;;;;;;;;;;;;;;;28.25;24.19;100703.06;4423569;32;20013;-68
2022/06/21 01:39:09;;;;;;;;;;;;;;;28.43;24.10;100707.87;4420893;32;19957;-68
2022/06/21 01:41:41;;;;;;;;;;;;;;;28.55;24.12;100715.00;4420142;32;20442;-67
2022/06/21 01:44:09;;;;;;;;;;;;;;;28.60;24.07;100700.34;4421697;32;19965;-68
2022/06/21 01:46:35;;;;;;;;;;;;;;;28.53;24.28;100706.09;4420830;32;20037;-68
2022/06/21 01:49:06;;;;;;;;;;;;;;;28.40;24.39;100706.12;4421600;32;20016;-68
2022/06/21 01:51:36;;;;;;;;;;;;;;;28.50;24.29;100702.19;4421006;32;19993;-68
2022/06/21 01:54:04;;;;;;;;;;;;;;;28.60;24.26;100696.72;4418512;32;20336;-68
2022/06/21 01:56:32;;;;;;;;;;;;;;;28.01;24.64;100701.25;4419363;32;20048;-68
2022/06/21 01:59:02;;;;;;;;;;;;;;;28.49;24.20;100709.34;4419235;32;20646;-68
2022/06/21 02:01:33;;;;;;;;;;;;;;;28.62;24.07;100703.47;4419170;32;20001;-68
2022/06/21 02:04:01;;;;;;;;;;;;;;;28.38;24.19;100703.03;4420387;32;19982;-68
2022/06/21 02:06:29;;;;;;;;;;;;;;;28.59;24.06;100698.81;4423061;32;20028;-67
2022/06/21 02:08:59;;;;;;;;;;;;;;;28.63;24.02;100699.22;4421752;32;19991;-68
2022/06/21 02:11:27;;;;;;;;;;;;;;;28.30;24.44;100705.06;4421898;32;19988;-68
2022/06/21 02:16:41;;;;;;;;;;;;;;;28.64;24.04;100715.28;4417076;32;20008;-67
2022/06/21 02:19:12;;;;;;;;;;;;;;;28.40;24.29;100715.59;4420799;32;19965;-67
2022/06/21 02:21:41;;;;;;;;;;;;;;;28.18;24.42;100718.25;4419400;32;21173;-68
2022/06/21 02:24:11;;;;;;;;;;;;;;;27.89;24.95;100717.31;4419114;32;20028;-68
2022/06/21 02:26:38;;;;;;;;;;;;;;;28.14;24.70;100709.94;4421765;32;19969;-67
2022/06/21 02:29:04;;;;;;;;;;;;;;;27.95;24.73;100708.53;4422302;32;19989;-67
2022/06/21 02:31:29;;;;;;;;;;;;;;;28.09;24.77;100705.03;4420226;32;19953;-67
2022/06/21 02:33:56;;;;;;;;;;;;;;;28.19;24.26;100699.56;4421660;32;19965;-67
2022/06/21 02:36:27;;;;;;;;;;;;;;;27.88;24.73;100695.53;4421844;32;20001;-67
2022/06/21 02:38:56;;;;;;;;;;;;;;;28.17;24.46;100691.44;4418024;32;20425;-67
2022/06/21 02:41:26;;;;;;;;;;;;;;;28.12;24.21;100686.56;4409958;32;20016;-67
2022/06/21 02:43:55;;;;;;;;;;;;;;;28.31;24.08;100686.34;4407579;32;19998;-67
2022/06/21 02:46:26;;;;;;;;;;;;;;;28.29;24.04;100678.22;4411242;32;19979;-67
2022/06/21 02:48:56;;;;;;;;;;;;;;;28.28;23.87;100673.78;4408712;32;20303;-68
2022/06/21 02:51:25;;;;;;;;;;;;;;;28.30;23.82;100670.31;4409739;32;20005;-68
2022/06/21 02:53:56;;;;;;;;;;;;;;;28.15;23.81;100667.28;4410037;32;20052;-68
2022/06/21 02:56:25;;;;;;;;;;;;;;;28.20;23.66;100667.16;4409252;32;19957;-68
2022/06/21 02:58:53;;;;;;;;;;;;;;;28.18;23.70;100663.25;4407735;32;20028;-68
2022/06/21 03:01:38;;;;;;;;;;;;;;;27.97;23.78;100665.34;4404681;32;20001;-68
2022/06/21 03:04:06;;;;;;;;;;;;;;;28.24;23.68;100667.56;4408646;32;19953;-68
2022/06/21 03:06:32;;;;;;;;;;;;;;;27.62;24.34;100668.75;4411359;32;20008;-68
2022/06/21 03:09:06;;;;;;;;;;;;;;;27.55;24.68;100658.63;4407719;32;20000;-68
2022/06/21 03:11:36;;;;;;;;;;;;;;;27.85;24.41;100661.16;4408030;32;19986;-68
2022/06/21 03:14:05;;;;;;;;;;;;;;;27.67;24.63;100656.31;4408925;32;20008;-68
2022/06/21 03:16:31;;;;;;;;;;;;;;;27.89;24.35;100652.94;4411981;32;20056;-68
2022/06/21 03:18:58;;;;;;;;;;;;;;;27.94;24.30;100649.09;4408500;32;19962;-68
2022/06/21 03:21:27;;;;;;;;;;;;;;;28.16;23.98;100648.59;4406310;32;19977;-68
2022/06/21 03:23:53;;;;;;;;;;;;;;;28.20;23.99;100657.69;4409583;32;20450;-68
2022/06/21 03:26:18;;;;;;;;;;;;;;;27.95;24.37;100645.66;4407268;32;19995;-68
2022/06/21 03:28:45;;;;;;;;;;;;;;;28.06;24.20;100647.50;4409018;32;19957;-68
2022/06/21 03:33:49;;;;;;;;;;;;;;;28.45;24.03;100638.62;3950825;32;15725507;-68
2022/06/21 03:36:18;;;;;;;;;;;;;;;28.45;24.03;100638.62;4426402;32;20001;-68
2022/06/21 03:38:45;;;;;;;;;;;;;;;28.14;24.19;100628.13;4425342;32;19970;-68
2022/06/21 03:41:44;;;;;;;;;;;;;;;28.28;24.02;100633.25;4430815;32;20043;-68
2022/06/21 03:44:01;;;;;;;;;;;;;;;28.33;23.95;100628.69;4428777;32;19972;-68
2022/06/21 03:46:32;;;;;;;;;;;;;;;28.17;24.23;100627.78;4428399;32;20461;-68
2022/06/21 03:49:03;;;;;;;;;;;;;;;28.26;24.07;100627.25;4424432;32;19976;-68
2022/06/21 03:51:31;;;;;;;;;;;;;;;28.00;24.33;100633.19;4426531;32;20030;-68
2022/06/21 03:54:00;;;;;;;;;;;;;;;28.21;24.17;100622.41;4423440;32;20295;-68
2022/06/21 03:56:30;;;;;;;;;;;;;;;28.27;24.07;100630.94;4431399;32;19967;-68
2022/06/21 03:59:16;;;;;;;;;;;;;;;28.20;24.06;100620.06;4425932;32;20378;-68
2022/06/21 04:04:22;;;;;;;;;;;;;;;28.31;23.98;100614.78;3947516;32;15725507;-68
2022/06/21 04:12:17;;;;;;;;;;;;;;;28.37;23.97;100612.50;3946535;32;15724075;-68
2022/06/21 04:14:55;;;;;;;;;;;;;;;28.37;23.97;100612.50;4424114;32;20317;-68
2022/06/21 04:22:55;;;;;;;;;;;;;;;28.13;24.85;100624.44;3945976;32;15730407;-68
2022/06/21 04:28:00;;;;;;;;;;;;;;;27.43;25.62;100630.56;3947871;32;15724491;-68
2022/06/21 04:35:48;;;;;;;;;;;;;;;28.35;24.59;100641.22;3947394;32;15726292;-68
2022/06/21 04:38:17;;;;;;;;;;;;;;;28.35;24.59;100641.22;4428569;32;19984;-68
2022/06/21 04:43:22;;;;;;;;;;;;;;;28.61;24.48;100632.44;3948501;32;15730132;-68
2022/06/21 04:45:52;;;;;;;;;;;;;;;28.61;24.48;100632.44;4422159;32;20232;-68
2022/06/21 04:48:28;;;;;;;;;;;;;;;28.15;24.82;100635.44;4425275;32;20480;-68
2022/06/21 04:50:59;;;;;;;;;;;;;;;28.31;24.42;100635.03;4424142;32;19957;-68
2022/06/21 04:56:21;;;;;;;;;;;;;;;29.08;23.70;100643.78;3947678;32;15722468;-68
2022/06/21 04:58:48;;;;;;;;;;;;;;;29.08;23.70;100643.78;4421601;32;20282;-68
2022/06/21 05:01:45;;;;;;;;;;;;;;;28.86;23.79;100638.59;4420821;32;20331;-68
2022/06/21 05:04:19;;;;;;;;;;;;;;;29.02;23.60;100646.81;4420985;32;20104;-68
2022/06/21 05:06:45;;;;;;;;;;;;;;;29.21;23.45;100649.50;4422962;32;19964;-69
2022/06/21 05:09:14;;;;;;;;;;;;;;;29.28;23.38;100642.94;4417368;32;20361;-68
2022/06/21 05:11:40;;;;;;;;;;;;;;;29.34;23.45;100642.78;4420426;32;20822;-68
2022/06/21 05:14:13;;;;;;;;;;;;;;;29.43;23.27;100648.81;4418776;32;20016;-68
2022/06/21 05:16:39;;;;;;;;;;;;;;;29.57;22.98;100647.31;4419179;32;19960;-68
2022/06/21 05:19:12;;;;;;;;;;;;;;;29.62;22.99;100645.62;4420096;32;20001;-68
2022/06/21 05:21:40;;;;;;;;;;;;;;;29.70;22.98;100638.50;4419311;32;20040;-68
2022/06/21 05:24:06;;;;;;;;;;;;;;;29.72;23.07;100635.81;4418552;32;19997;-68
2022/06/21 05:26:35;;;;;;;;;;;;;;;29.85;22.85;100637.81;4419172;32;20048;-68
2022/06/21 05:29:05;;;;;;;;;;;;;;;30.15;22.47;100637.84;4421480;32;20001;-68
2022/06/21 05:31:35;;;;;;;;;;;;;;;30.32;22.40;100626.50;4419891;32;20186;-68
2022/06/21 05:34:06;;;;;;;;;;;;;;;30.65;22.08;100628.25;4417782;32;20614;-68
2022/06/21 05:36:34;;;;;;;;;;;;;;;30.91;21.93;100624.16;4419784;32;19949;-68
2022/06/21 05:39:02;;;;;;;;;;;;;;;31.00;21.58;100630.16;4418681;32;20019;-68
2022/06/21 05:41:31;;;;;;;;;;;;;;;31.38;21.41;100619.22;4423771;32;20339;-68
2022/06/21 05:43:59;;;;;;;;;;;;;;;31.59;21.20;100630.56;4420303;32;19961;-68
2022/06/21 05:46:27;;;;;;;;;;;;;;;31.78;20.92;100627.97;4419939;32;20442;-68
2022/06/21 05:48:54;;;;;;;;;;;;;;;31.71;20.91;100617.91;4420291;32;20004;-68
2022/06/21 05:51:23;;;;;;;;;;;;;;;32.02;20.75;100615.59;4420094;32;20009;-68
2022/06/21 05:53:59;;;;;;;;;;;;;;;32.18;20.23;100609.09;4419818;32;20151;-68
2022/06/21 05:56:26;;;;;;;;;;;;;;;32.24;20.21;100609.63;4413818;32;20424;-68
2022/06/21 05:59:02;;;;;;;;;;;;;;;32.31;20.65;100602.97;4420091;32;20015;-69
2022/06/21 06:06:56;;;;;;;;;;;;;;;33.23;19.62;100612.44;3947857;32;15723386;-69
2022/06/21 06:09:25;;;;;;;;;;;;;;;33.23;19.62;100612.44;4424921;32;19993;-69
2022/06/21 06:12:00;;;;;;;;;;;;;;;32.87;19.74;100613.03;4417763;32;19961;-69
2022/06/21 06:14:29;;;;;;;;;;;;;;;33.10;19.47;100609.87;4418848;32;19957;-69
2022/06/21 06:16:57;;;;;;;;;;;;;;;32.90;19.51;100611.03;4416710;32;20020;-69
2022/06/21 06:19:34;;;;;;;;;;;;;;;33.36;19.27;100604.13;4420779;32;20316;-69
2022/06/21 06:22:20;;;;;;;;;;;;;;;33.35;19.26;100611.34;4421986;32;20095;-69
2022/06/21 06:24:49;;;;;;;;;;;;;;;33.51;19.10;100618.53;4420996;32;20424;-69
2022/06/21 06:27:35;;;;;;;;;;;;;;;33.67;18.81;100604.50;4419548;32;20379;-69
2022/06/21 06:30:04;;;;;;;;;;;;;;;33.64;18.82;100605.72;4419605;32;20362;-69
2022/06/21 06:35:13;;;;;;;;;;;;;;;34.91;17.93;100608.81;3957210;31;15724531;-69
2022/06/21 06:37:42;;;;;;;;;;;;;;;34.91;17.93;100608.81;4422452;32;20595;-69
2022/06/21 06:40:16;;;;;;;;;;;;;;;34.51;18.29;100611.44;4424059;32;20001;-68
2022/06/21 06:42:42;;;;;;;;;;;;;;;34.81;18.05;100602.13;4421971;32;19997;-68
2022/06/21 06:45:14;;;;;;;;;;;;;;;34.94;17.81;100606.81;4417080;32;19973;-68
2022/06/21 06:47:42;;;;;;;;;;;;;;;34.80;17.59;100608.59;4414327;32;20489;-68
2022/06/21 06:52:51;;;;;;;;;;;;;;;35.73;17.09;100612.22;3941260;32;15722385;-69
2022/06/21 06:55:23;;;;;;;;;;;;;;;35.73;17.09;100612.22;4418424;32;19999;-69
2022/06/21 06:57:53;;;;;;;;;;;;;;;35.41;17.14;100606.87;4419075;32;19963;-69
2022/06/21 07:00:20;;;;;;;;;;;;;;;35.44;16.50;100604.88;4417227;32;20024;-68
2022/06/21 07:02:56;;;;;;;;;;;;;;;35.62;15.91;100601.12;4420649;32;20089;-69
2022/06/21 07:08:02;;;;;;;;;;;;;;;36.17;15.41;100603.03;3938399;32;15764588;-69
2022/06/21 07:10:28;;;;;;;;;;;;;;;36.17;15.41;100603.03;4420755;32;19965;-69
2022/06/21 07:12:55;;;;;;;;;;;;;;;36.12;15.27;100599.06;4418472;32;20395;-69
2022/06/21 07:15:30;;;;;;;;;;;;;;;36.24;15.26;100607.94;4422249;32;19973;-68
2022/06/21 07:17:57;;;;;;;;;;;;;;;36.26;15.02;100605.16;4412657;32;20022;-69
2022/06/21 07:20:26;;;;;;;;;;;;;;;36.29;15.09;100612.75;4420660;32;20163;-69
2022/06/21 07:22:55;;;;;;;;;;;;;;;36.50;14.91;100606.91;4422317;32;20070;-69
2022/06/21 07:25:40;;;;;;;;;;;;;;;36.38;14.89;100606.03;4414244;32;19993;-68
2022/06/21 07:28:10;;;;;;;;;;;;;;;36.59;14.84;100606.09;4424479;32;20012;-69
2022/06/21 07:30:39;;;;;;;;;;;;;;;36.38;14.96;100602.38;4422822;32;20000;-68
2022/06/21 07:33:10;;;;;;;;;;;;;;;36.39;14.97;100598.81;4421931;32;20298;-68
2022/06/21 07:35:38;;;;;;;;;;;;;;;36.33;14.95;100588.81;4423439;32;20200;-68
2022/06/21 07:40:44;;;;;;;;;;;;;;;37.21;14.23;100598.03;3941379;32;15729545;-69
2022/06/21 07:43:14;;;;;;;;;;;;;;;37.21;14.23;100598.03;4417222;32;20012;-69
2022/06/21 07:45:44;;;;;;;;;;;;;;;36.12;14.78;100601.97;4418134;32;20265;-69
2022/06/21 07:48:29;;;;;;;;;;;;;;;36.85;14.23;100601.34;4413279;32;21447;-69
2022/06/21 07:50:58;;;;;;;;;;;;;;;36.90;14.31;100606.09;4416381;32;20008;-69
2022/06/21 07:53:28;;;;;;;;;;;;;;;36.87;14.49;100605.19;4414188;32;20020;-69
2022/06/21 07:56:05;;;;;;;;;;;;;;;36.85;14.44;100608.00;4413656;32;20591;-69
2022/06/21 07:58:37;;;;;;;;;;;;;;;37.24;14.25;100611.44;4416817;32;20021;-69
2022/06/21 08:06:45;;;;;;;;;;;;;;;37.18;14.27;100597.06;4413786;32;20354;-67
2022/06/21 08:09:31;;;;;;;;;;;;;;;37.53;14.10;100609.00;4417231;32;20015;-68
2022/06/21 08:12:00;;;;;;;;;;;;;;;37.81;13.97;100597.00;4419080;32;20004;-68
2022/06/21 08:14:28;;;;;;;;;;;;;;;37.97;13.39;100600.22;4413070;32;20105;-68
2022/06/21 08:16:57;;;;;;;;;;;;;;;37.86;13.57;100598.03;4414459;32;20001;-68
2022/06/21 08:19:43;;;;;;;;;;;;;;;37.91;13.60;100605.69;4417316;32;20402;-68
2022/06/21 08:22:12;;;;;;;;;;;;;;;37.56;14.03;100601.88;4405179;32;20334;-68
2022/06/21 08:27:20;;;;;;;;;;;;;;;38.25;13.60;100596.19;3947790;32;15725436;-69
2022/06/21 08:30:05;;;;;;;;;;;;;;;38.12;13.71;100593.88;4419781;32;20403;-69
2022/06/21 08:32:33;;;;;;;;;;;;;;;38.52;13.59;100593.50;4421540;32;19965;-70
2022/06/21 08:35:12;;;;;;;;;;;;;;;38.19;13.82;100589.19;4417865;32;20016;-69
2022/06/21 08:37:57;;;;;;;;;;;;;;;37.95;14.07;100589.09;4416843;32;20001;-69
2022/06/21 08:40:43;;;;;;;;;;;;;;;38.87;13.45;100588.38;4415802;32;20680;-69
2022/06/21 08:43:29;;;;;;;;;;;;;;;39.01;13.42;100589.28;4415543;32;20423;-68
2022/06/21 08:46:15;;;;;;;;;;;;;;;39.31;13.23;100585.22;4418829;32;21175;-68
2022/06/21 08:56:55;;;;;;;;;;;;;;;40.07;12.86;100591.12;3941779;32;15724510;-70
2022/06/21 09:10:18;;;;;;;;;;;;;;;41.09;12.34;100585.78;3941571;32;15722352;-70
2022/06/21 09:13:04;;;;;;;;;;;;;;;41.09;12.34;100585.78;4418727;32;20379;-69
2022/06/21 09:15:33;;;;;;;;;;;;;;;40.09;12.88;100592.00;4415673;32;20019;-69
2022/06/21 09:20:54;;;;;;;;;;;;;;;41.40;12.30;100591.81;3947441;32;15746163;-70
2022/06/21 09:23:26;;;;;;;;;;;;;;;41.40;12.30;100591.81;4421022;32;19988;-70
2022/06/21 09:26:02;;;;;;;;;;;;;;;41.78;12.03;100583.38;4426144;32;20006;-70
2022/06/21 09:31:28;;;;;;;;;;;;;;;43.10;11.44;100595.59;3945817;32;15726476;-69
2022/06/21 09:33:56;;;;;;;;;;;;;;;43.10;11.44;100595.59;4413535;32;19973;-70
2022/06/21 09:36:29;;;;;;;;;;;;;;;42.92;11.21;100585.87;4411570;32;20042;-70
2022/06/21 09:44:40;;;;;;;;;;;;;;;44.35;10.41;100574.94;3940381;32;15728672;-70
2022/06/21 09:47:10;;;;;;;;;;;;;;;44.35;10.41;100574.94;4417863;32;19953;-71
2022/06/21 09:49:56;;;;;;;;;;;;;;;44.30;10.49;100585.09;4415805;32;20009;-70
2022/06/21 10:00:16;;;;;;;;;;;;;;;46.24;9.44;100576.41;3943164;32;15723133;-72
2022/06/21 10:02:59;;;;;;;;;;;;;;;46.24;9.44;100576.41;4419278;32;19995;-71
2022/06/21 10:05:44;;;;;;;;;;;;;;;46.29;9.35;100587.72;4424579;32;19988;-71
2022/06/21 10:13:44;;;;;;;;;;;;;;;44.71;10.31;100585.97;3942244;32;15726472;-69
2022/06/21 10:16:30;;;;;;;;;;;;;;;44.71;10.31;100585.97;4415434;32;20443;-70
2022/06/21 10:19:00;;;;;;;;;;;;;;;44.14;10.35;100584.44;4417833;32;20368;-71
2022/06/21 10:37:29;;;;;;;;;;;;;;;45.05;9.62;100594.66;3944163;31;15715910;-71
2022/06/21 10:48:03;;;;;;;;;;;;;;;44.75;9.98;100585.34;3942753;32;15725142;-70
2022/06/21 10:53:17;;;;;;;;;;;;;;;46.53;8.92;100573.59;3945945;31;15717904;-69
2022/06/21 11:01:30;;;;;;;;;;;;;;;46.59;8.84;100569.28;3939166;32;15723560;-70
2022/06/21 11:06:52;;;;;;;;;;;;;;;46.36;9.07;100567.84;3942540;32;15722343;-69
2022/06/21 11:09:28;;;;;;;;;;;;;;;46.36;9.07;100567.84;4416994;32;20013;-69
2022/06/21 11:12:52;;;;;;;;;;;;;;;46.99;8.65;100570.44;4414938;32;20021;-67
2022/06/21 11:14:54;;;;;;;;;;;;;;;46.92;8.64;100571.75;4416355;32;19989;-69
2022/06/21 11:17:40;;;;;;;;;;;;;;;46.28;9.26;100565.38;4416241;32;19991;-70
2022/06/21 11:20:11;;;;;;;;;;;;;;;45.32;9.73;100558.44;4415658;32;19989;-69
2022/06/21 11:22:46;;;;;;;;;;;;;;;45.05;9.94;100561.97;4418545;32;20056;-69
2022/06/21 11:25:32;;;;;;;;;;;;;;;44.99;9.97;100562.50;4416819;32;19965;-69
2022/06/21 11:33:31;;;;;;;;;;;;;;;46.79;9.35;100561.69;3895979;32;15723414;-68
2022/06/21 11:44:04;;;;;;;;;;;;;;;48.59;8.14;100561.69;3943794;32;15725182;-70
2022/06/21 11:46:34;;;;;;;;;;;;;;;48.59;8.14;100561.69;4412317;32;20004;-70
2022/06/21 11:54:32;;;;;;;;;;;;;;;48.23;8.36;100549.72;3952698;31;15745968;-70
2022/06/21 11:57:17;;;;;;;;;;;;;;;48.23;8.36;100549.72;4425920;32;20280;-70
2022/06/21 12:05:02;;;;;;;;;;;;;;;48.98;8.15;100543.84;3940495;32;15725385;-70
2022/06/21 12:07:34;;;;;;;;;;;;;;;48.98;8.15;100543.84;4415097;32;19969;-71
2022/06/21 12:10:11;;;;;;;;;;;;;;;49.07;8.14;100544.75;4415476;32;20081;-69
2022/06/21 12:18:11;;;;;;;;;;;;;;;47.78;8.58;100541.97;3929271;32;15722026;-70
2022/06/21 12:20:41;;;;;;;;;;;;;;;47.78;8.58;100541.97;4400334;32;20646;-70
2022/06/21 12:23:27;;;;;;;;;;;;;;;48.42;8.25;100545.66;4404065;32;19997;-71
2022/06/21 12:25:53;;;;;;;;;;;;;;;49.58;7.66;100547.91;4402773;32;20405;-71
2022/06/21 12:28:38;;;;;;;;;;;;;;;50.66;7.19;100544.97;4401296;32;19987;-70
2022/06/21 12:34:02;;;;;;;;;;;;;;;50.31;7.26;100555.78;3941629;32;15723392;-71
2022/06/21 12:36:50;;;;;;;;;;;;;;;50.31;7.26;100555.78;4415188;32;20012;-68
2022/06/21 12:39:37;;;;;;;;;;;;;;;49.23;7.71;100545.78;4415421;32;20026;-69
2022/06/21 12:42:41;;;;;;;;;;;;;;;48.73;8.13;100538.84;4420000;32;20008;-71
2022/06/21 12:45:45;;;;;;;;;;;;;;;49.24;7.86;100543.56;4416080;32;20606;-69
2022/06/21 12:51:32;;;;;;;;;;;;;;;50.95;7.02;100543.81;3944665;32;15722157;-70
2022/06/21 12:57:15;;;;;;;;;;;;;;;50.05;7.69;100524.72;3948490;32;15718332;-70
2022/06/21 13:05:47;;;;;;;;;;;;;;;48.36;8.54;100524.63;3927181;32;15722439;-71
2022/06/21 13:08:42;;;;;;;;;;;;;;;48.36;8.54;100524.63;4401425;32;20087;-70
2022/06/21 13:11:42;;;;;;;;;;;;;;;49.31;7.93;100519.03;4401665;32;20032;-69
2022/06/21 13:14:41;;;;;;;;;;;;;;;51.21;7.19;100517.06;4401717;32;20331;-69
2022/06/21 13:25:37;;;;;;;;;;;;;;;50.89;6.98;100522.75;3942240;32;15724473;-71
2022/06/21 13:28:29;;;;;;;;;;;;;;;50.89;6.98;100522.75;4418321;32;20008;-71
2022/06/21 13:31:33;;;;;;;;;;;;;;;51.31;6.80;100520.22;4415629;32;19991;-70
2022/06/21 13:34:26;;;;;;;;;;;;;;;51.50;6.68;100512.84;4404079;32;20000;-69
2022/06/21 13:37:30;;;;;;;;;;;;;;;52.65;6.26;100517.25;4418818;32;20421;-68
2022/06/21 13:40:19;;;;;;;;;;;;;;;53.53;5.90;100522.59;4419939;32;20714;-69
2022/06/21 13:43:07;;;;;;;;;;;;;;;52.17;6.36;100517.78;4418974;32;20030;-70
2022/06/21 13:45:54;;;;;;;;;;;;;;;51.90;6.50;100516.13;4413787;32;20077;-69
2022/06/21 13:48:48;;;;;;;;;;;;;;;52.92;6.17;100516.59;4417817;32;20073;-71
2022/06/21 13:51:36;;;;;;;;;;;;;;;52.53;6.15;100511.16;4418244;32;20488;-71
2022/06/21 13:54:40;;;;;;;;;;;;;;;53.04;6.08;100518.84;4422585;32;20036;-71
2022/06/21 13:57:44;;;;;;;;;;;;;;;54.01;5.56;100508.22;4418985;32;20007;-71
2022/06/21 14:00:32;;;;;;;;;;;;;;;54.68;5.22;100511.72;4416862;32;20372;-72
2022/06/21 14:03:24;;;;;;;;;;;;;;;55.14;5.01;100516.72;4418551;32;20033;-71
2022/06/21 14:06:21;;;;;;;;;;;;;;;55.81;4.79;100521.38;4417556;32;20035;-72
2022/06/21 14:09:12;;;;;;;;;;;;;;;54.86;5.18;100514.63;4416518;32;20350;-70
2022/06/21 14:12:01;;;;;;;;;;;;;;;52.38;6.33;100513.38;4415233;32;19983;-69
2022/06/21 14:14:51;;;;;;;;;;;;;;;51.96;6.49;100498.19;4413820;32;20032;-70
2022/06/21 14:20:25;;;;;;;;;;;;;;;52.68;5.99;100503.72;3941885;32;15723074;-70
2022/06/21 14:23:32;;;;;;;;;;;;;;;52.68;5.99;100503.72;4415861;32;20309;-72
2022/06/21 14:29:00;;;;;;;;;;;;;;;56.55;4.81;100504.59;3945037;32;15726446;-69
2022/06/21 14:31:49;;;;;;;;;;;;;;;56.55;4.81;100504.59;4427109;32;20102;-71
2022/06/21 14:34:38;;;;;;;;;;;;;;;55.02;5.08;100504.72;4424919;32;20008;-70
2022/06/21 14:37:41;;;;;;;;;;;;;;;54.39;5.38;100505.09;4425187;32;20629;-71
2022/06/21 14:40:43;;;;;;;;;;;;;;;55.96;4.80;100509.88;4425940;32;20356;-72
2022/06/21 14:49:00;;;;;;;;;;;;;;;58.86;3.88;100512.38;3946300;32;15725222;-71
2022/06/21 14:51:48;;;;;;;;;;;;;;;58.86;3.88;100512.38;4421006;32;20428;-71
2022/06/21 15:02:40;;;;;;;;;;;;;;;58.47;3.82;100515.53;3963691;32;15726663;-72
2022/06/21 15:05:31;;;;;;;;;;;;;;;58.47;3.82;100515.53;4443466;32;20467;-70
2022/06/21 15:08:22;;;;;;;;;;;;;;;58.45;3.63;100512.53;4449157;32;19967;-71
2022/06/21 15:11:10;;;;;;;;;;;;;;;58.42;3.62;100510.38;4436300;32;19979;-70
2022/06/21 15:16:34;;;;;;;;;;;;;;;58.71;3.70;100496.03;3948194;32;15723370;-70
2022/06/21 15:22:46;;;;;;;;;;;;;;;59.76;3.28;100503.22;4419239;32;20020;-70
2022/06/21 15:30:45;;;;;;;;;;;;;;;61.68;2.69;100499.28;3946711;32;15724463;-70
2022/06/21 15:41:28;;;;;;;;;;;;;;;51.54;6.62;100465.62;3948069;32;15725382;-72
2022/06/21 15:44:33;;;;;;;;;;;;;;;51.54;6.62;100465.62;4423039;32;20354;-71
2022/06/21 16:01:37;;;;;;;;;;;;;;;48.07;8.58;100456.84;3948855;32;15721561;-71
2022/06/21 16:04:29;;;;;;;;;;;;;;;48.07;8.58;100456.84;4424565;32;20020;-71
2022/06/21 16:09:50;;;;;;;;;;;;;;;48.74;8.29;100453.75;3944454;32;15726431;-71
2022/06/21 16:12:39;;;;;;;;;;;;;;;48.74;8.29;100453.75;4420256;32;20021;-70
2022/06/21 16:15:11;;;;;;;;;;;;;;;47.98;8.65;100464.88;4420698;32;20381;-71
2022/06/21 16:17:45;;;;;;;;;;;;;;;47.45;8.78;100450.19;4406536;32;20005;-71
2022/06/21 16:20:15;;;;;;;;;;;;;;;46.96;9.19;100458.63;4418807;32;20008;-71
2022/06/21 16:23:00;;;;;;;;;;;;;;;47.04;9.24;100462.56;4420728;32;19957;-71
2022/06/21 16:25:29;;;;;;;;;;;;;;;46.73;9.41;100459.47;4421585;32;20391;-71
2022/06/21 16:28:04;;;;;;;;;;;;;;;46.10;9.82;100463.66;4425094;32;20261;-71
2022/06/21 16:30:36;;;;;;;;;;;;;;;45.55;10.20;100466.34;4418652;32;20040;-71
2022/06/21 16:33:24;;;;;;;;;;;;;;;45.29;10.41;100458.78;4419778;32;20012;-70
2022/06/21 16:38:32;;;;;;;;;;;;;;;45.84;10.22;100459.88;3948677;32;15745521;-71
2022/06/21 16:43:55;;;;;;;;;;;;;;;45.50;10.20;100466.94;3947694;32;15722446;-71
2022/06/21 16:46:27;;;;;;;;;;;;;;;45.50;10.20;100466.94;4427440;32;20000;-71
2022/06/21 16:48:57;;;;;;;;;;;;;;;45.94;9.89;100460.16;4427874;32;19969;-71
2022/06/21 16:51:29;;;;;;;;;;;;;;;46.28;9.75;100460.44;4430055;32;19991;-71
2022/06/21 16:53:58;;;;;;;;;;;;;;;47.07;9.39;100458.16;4433116;32;19968;-71
2022/06/21 16:56:24;;;;;;;;;;;;;;;46.58;9.73;100473.22;4433313;32;20302;-70
2022/06/21 16:58:51;;;;;;;;;;;;;;;46.37;9.80;100456.22;4432133;32;19961;-71
2022/06/21 17:01:19;;;;;;;;;;;;;;;45.95;10.11;100458.69;4431275;32;20232;-71
2022/06/21 17:14:25;;;;;;;;;;;;;;;44.89;10.87;100443.31;3950211;32;15724364;-70
2022/06/21 17:19:32;;;;;;;;;;;;;;;44.37;11.42;100448.16;3960473;31;15720426;-71
2022/06/21 17:24:51;;;;;;;;;;;;;;;44.56;11.34;100444.37;3940843;32;15726529;-70
2022/06/21 17:30:00;;;;;;;;;;;;;;;44.67;11.23;100443.31;3948408;32;15748533;-70
2022/06/21 17:32:32;;;;;;;;;;;;;;;44.67;11.23;100443.31;4431198;32;20007;-71
2022/06/21 17:35:08;;;;;;;;;;;;;;;45.20;11.35;100442.12;4431522;32;20475;-71
2022/06/21 17:43:05;;;;;;;;;;;;;;;44.74;12.06;100432.41;3936561;32;15723824;-71
2022/06/21 17:45:34;;;;;;;;;;;;;;;44.74;12.06;100432.41;4409114;32;19964;-71
2022/06/21 17:48:04;;;;;;;;;;;;;;;43.90;12.80;100444.88;4413508;32;19978;-71
2022/06/21 17:50:34;;;;;;;;;;;;;;;43.13;13.33;100446.91;4411431;32;20353;-71
2022/06/21 17:53:03;;;;;;;;;;;;;;;42.48;13.78;100436.63;4413990;32;20301;-71